sensor_id;sensor_type;location;lat;lon;timestamp;P1;durP1;ratioP1;P2;durP2;ratioP2
68714;SDS011;55692;53.356;10.030;2023-05-07T00:01:49;15.63;;;10.40;;
68714;SDS011;55692;53.356;10.030;2023-05-07T00:04:15;18.85;;;10.30;;
68714;SDS011;55692;53.356;10.030;2023-05-07T00:06:41;17.35;;;10.20;;
68714;SDS011;55692;53.356;10.030;2023-05-07T00:09:07;19.65;;;10.38;;
68714;SDS011;55692;53.356;10.030;2023-05-07T00:11:33;16.98;;;10.15;;
68714;SDS011;55692;53.356;10.030;2023-05-07T00:14:00;18.75;;;9.68;;
68714;SDS011;55692;53.356;10.030;2023-05-07T00:16:26;13.95;;;9.32;;
68714;SDS011;55692;53.356;10.030;2023-05-07T00:18:52;13.18;;;8.40;;
68714;SDS011;55692;53.356;10.030;2023-05-07T00:21:18;17.90;;;9.98;;
68714;SDS011;55692;53.356;10.030;2023-05-07T00:23:44;14.00;;;9.00;;
68714;SDS011;55692;53.356;10.030;2023-05-07T00:26:10;14.07;;;8.80;;
68714;SDS011;55692;53.356;10.030;2023-05-07T00:28:36;14.05;;;9.57;;
68714;SDS011;55692;53.356;10.030;2023-05-07T00:31:02;15.23;;;8.70;;
68714;SDS011;55692;53.356;10.030;2023-05-07T00:33:28;13.98;;;8.23;;
68714;SDS011;55692;53.356;10.030;2023-05-07T00:35:54;12.70;;;8.07;;
68714;SDS011;55692;53.356;10.030;2023-05-07T00:38:20;12.40;;;8.38;;
68714;SDS011;55692;53.356;10.030;2023-05-07T00:40:46;15.50;;;7.82;;
68714;SDS011;55692;53.356;10.030;2023-05-07T00:43:12;14.27;;;8.70;;
68714;SDS011;55692;53.356;10.030;2023-05-07T00:45:38;12.63;;;8.35;;
68714;SDS011;55692;53.356;10.030;2023-05-07T00:48:04;11.95;;;8.02;;
68714;SDS011;55692;53.356;10.030;2023-05-07T00:50:31;11.95;;;7.47;;
68714;SDS011;55692;53.356;10.030;2023-05-07T00:52:58;12.90;;;7.80;;
68714;SDS011;55692;53.356;10.030;2023-05-07T00:55:24;13.43;;;8.65;;
68714;SDS011;55692;53.356;10.030;2023-05-07T00:57:50;12.55;;;8.15;;
68714;SDS011;55692;53.356;10.030;2023-05-07T01:00:17;12.07;;;7.78;;
68714;SDS011;55692;53.356;10.030;2023-05-07T01:02:43;9.63;;;7.10;;
68714;SDS011;55692;53.356;10.030;2023-05-07T01:05:10;12.02;;;7.85;;
68714;SDS011;55692;53.356;10.030;2023-05-07T01:07:38;11.52;;;7.55;;
68714;SDS011;55692;53.356;10.030;2023-05-07T01:10:06;10.98;;;7.00;;
68714;SDS011;55692;53.356;10.030;2023-05-07T01:12:32;10.35;;;6.93;;
68714;SDS011;55692;53.356;10.030;2023-05-07T01:14:58;13.38;;;8.23;;
68714;SDS011;55692;53.356;10.030;2023-05-07T01:17:24;11.20;;;7.60;;
68714;SDS011;55692;53.356;10.030;2023-05-07T01:19:50;12.05;;;7.95;;
68714;SDS011;55692;53.356;10.030;2023-05-07T01:22:23;11.23;;;6.95;;
68714;SDS011;55692;53.356;10.030;2023-05-07T01:24:51;12.23;;;7.43;;
68714;SDS011;55692;53.356;10.030;2023-05-07T01:27:17;11.32;;;7.57;;
68714;SDS011;55692;53.356;10.030;2023-05-07T01:29:43;11.00;;;7.50;;
68714;SDS011;55692;53.356;10.030;2023-05-07T01:32:09;12.20;;;7.78;;
68714;SDS011;55692;53.356;10.030;2023-05-07T01:34:35;11.40;;;8.10;;
68714;SDS011;55692;53.356;10.030;2023-05-07T01:37:01;11.80;;;8.20;;
68714;SDS011;55692;53.356;10.030;2023-05-07T01:39:28;10.07;;;7.45;;
68714;SDS011;55692;53.356;10.030;2023-05-07T01:41:55;10.90;;;8.18;;
68714;SDS011;55692;53.356;10.030;2023-05-07T01:44:21;12.07;;;8.35;;
68714;SDS011;55692;53.356;10.030;2023-05-07T01:46:48;9.90;;;7.32;;
68714;SDS011;55692;53.356;10.030;2023-05-07T01:49:15;13.40;;;8.10;;
68714;SDS011;55692;53.356;10.030;2023-05-07T01:51:41;12.60;;;7.63;;
68714;SDS011;55692;53.356;10.030;2023-05-07T01:54:07;10.85;;;7.82;;
68714;SDS011;55692;53.356;10.030;2023-05-07T01:56:33;12.05;;;8.43;;
68714;SDS011;55692;53.356;10.030;2023-05-07T01:58:59;13.50;;;8.55;;
68714;SDS011;55692;53.356;10.030;2023-05-07T02:01:25;10.35;;;7.63;;
68714;SDS011;55692;53.356;10.030;2023-05-07T02:03:51;11.65;;;7.65;;
68714;SDS011;55692;53.356;10.030;2023-05-07T02:06:18;11.98;;;8.20;;
68714;SDS011;55692;53.356;10.030;2023-05-07T02:08:44;11.68;;;8.05;;
68714;SDS011;55692;53.356;10.030;2023-05-07T02:11:11;12.13;;;7.70;;
68714;SDS011;55692;53.356;10.030;2023-05-07T02:13:37;10.68;;;7.38;;
68714;SDS011;55692;53.356;10.030;2023-05-07T02:16:03;12.38;;;8.35;;
68714;SDS011;55692;53.356;10.030;2023-05-07T02:18:29;11.98;;;7.38;;
68714;SDS011;55692;53.356;10.030;2023-05-07T02:20:55;10.13;;;7.50;;
68714;SDS011;55692;53.356;10.030;2023-05-07T02:23:21;10.80;;;7.55;;
68714;SDS011;55692;53.356;10.030;2023-05-07T02:25:47;11.32;;;7.80;;
68714;SDS011;55692;53.356;10.030;2023-05-07T02:28:13;12.25;;;8.07;;
68714;SDS011;55692;53.356;10.030;2023-05-07T02:30:39;11.45;;;8.00;;
68714;SDS011;55692;53.356;10.030;2023-05-07T02:33:05;12.13;;;7.32;;
68714;SDS011;55692;53.356;10.030;2023-05-07T02:35:33;11.32;;;7.82;;
68714;SDS011;55692;53.356;10.030;2023-05-07T02:37:59;13.52;;;8.05;;
68714;SDS011;55692;53.356;10.030;2023-05-07T02:40:25;9.45;;;7.28;;
68714;SDS011;55692;53.356;10.030;2023-05-07T02:42:51;10.10;;;7.63;;
68714;SDS011;55692;53.356;10.030;2023-05-07T02:45:17;11.73;;;8.00;;
68714;SDS011;55692;53.356;10.030;2023-05-07T02:47:43;13.80;;;8.55;;
68714;SDS011;55692;53.356;10.030;2023-05-07T02:50:09;13.07;;;8.88;;
68714;SDS011;55692;53.356;10.030;2023-05-07T02:52:35;11.00;;;7.43;;
68714;SDS011;55692;53.356;10.030;2023-05-07T02:55:01;11.95;;;8.35;;
68714;SDS011;55692;53.356;10.030;2023-05-07T02:57:27;11.32;;;8.05;;
68714;SDS011;55692;53.356;10.030;2023-05-07T02:59:53;14.10;;;9.23;;
68714;SDS011;55692;53.356;10.030;2023-05-07T03:02:19;11.95;;;8.50;;
68714;SDS011;55692;53.356;10.030;2023-05-07T03:04:45;16.75;;;9.25;;
68714;SDS011;55692;53.356;10.030;2023-05-07T03:07:11;14.00;;;9.38;;
68714;SDS011;55692;53.356;10.030;2023-05-07T03:09:37;13.50;;;10.27;;
68714;SDS011;55692;53.356;10.030;2023-05-07T03:12:03;12.77;;;9.18;;
68714;SDS011;55692;53.356;10.030;2023-05-07T03:14:29;13.60;;;9.13;;
68714;SDS011;55692;53.356;10.030;2023-05-07T03:16:55;13.50;;;9.57;;
68714;SDS011;55692;53.356;10.030;2023-05-07T03:19:21;14.23;;;9.82;;
68714;SDS011;55692;53.356;10.030;2023-05-07T03:21:47;14.70;;;9.63;;
68714;SDS011;55692;53.356;10.030;2023-05-07T03:24:13;16.25;;;9.45;;
68714;SDS011;55692;53.356;10.030;2023-05-07T03:26:39;17.17;;;9.95;;
68714;SDS011;55692;53.356;10.030;2023-05-07T03:29:05;15.25;;;9.85;;
68714;SDS011;55692;53.356;10.030;2023-05-07T03:31:31;16.45;;;10.05;;
68714;SDS011;55692;53.356;10.030;2023-05-07T03:33:57;15.80;;;9.73;;
68714;SDS011;55692;53.356;10.030;2023-05-07T03:36:26;14.00;;;8.80;;
68714;SDS011;55692;53.356;10.030;2023-05-07T03:38:52;12.73;;;8.90;;
68714;SDS011;55692;53.356;10.030;2023-05-07T03:41:18;13.75;;;9.07;;
68714;SDS011;55692;53.356;10.030;2023-05-07T03:43:45;13.77;;;8.88;;
68714;SDS011;55692;53.356;10.030;2023-05-07T03:46:11;14.15;;;9.07;;
68714;SDS011;55692;53.356;10.030;2023-05-07T03:48:37;14.68;;;9.48;;
68714;SDS011;55692;53.356;10.030;2023-05-07T03:51:03;15.75;;;9.88;;
68714;SDS011;55692;53.356;10.030;2023-05-07T03:53:29;16.30;;;9.88;;
68714;SDS011;55692;53.356;10.030;2023-05-07T03:55:55;15.10;;;8.90;;
68714;SDS011;55692;53.356;10.030;2023-05-07T03:58:21;14.07;;;10.13;;
68714;SDS011;55692;53.356;10.030;2023-05-07T04:00:47;15.68;;;9.82;;
68714;SDS011;55692;53.356;10.030;2023-05-07T04:03:13;13.05;;;9.57;;
68714;SDS011;55692;53.356;10.030;2023-05-07T04:05:39;13.30;;;9.50;;
68714;SDS011;55692;53.356;10.030;2023-05-07T04:08:05;13.07;;;9.00;;
68714;SDS011;55692;53.356;10.030;2023-05-07T04:10:32;16.33;;;10.07;;
68714;SDS011;55692;53.356;10.030;2023-05-07T04:12:58;15.93;;;10.15;;
68714;SDS011;55692;53.356;10.030;2023-05-07T04:15:24;12.52;;;8.60;;
68714;SDS011;55692;53.356;10.030;2023-05-07T04:17:50;13.50;;;9.43;;
68714;SDS011;55692;53.356;10.030;2023-05-07T04:20:16;13.73;;;9.50;;
68714;SDS011;55692;53.356;10.030;2023-05-07T04:22:42;12.88;;;9.40;;
68714;SDS011;55692;53.356;10.030;2023-05-07T04:25:08;15.82;;;10.90;;
68714;SDS011;55692;53.356;10.030;2023-05-07T04:27:35;14.27;;;9.98;;
68714;SDS011;55692;53.356;10.030;2023-05-07T04:30:02;16.70;;;10.32;;
68714;SDS011;55692;53.356;10.030;2023-05-07T04:32:28;13.10;;;8.80;;
68714;SDS011;55692;53.356;10.030;2023-05-07T04:34:55;14.35;;;9.32;;
68714;SDS011;55692;53.356;10.030;2023-05-07T04:37:21;15.32;;;9.18;;
68714;SDS011;55692;53.356;10.030;2023-05-07T04:39:47;17.73;;;9.52;;
68714;SDS011;55692;53.356;10.030;2023-05-07T04:42:16;20.50;;;10.00;;
68714;SDS011;55692;53.356;10.030;2023-05-07T04:44:43;15.32;;;9.57;;
68714;SDS011;55692;53.356;10.030;2023-05-07T04:47:10;14.18;;;9.63;;
68714;SDS011;55692;53.356;10.030;2023-05-07T04:49:36;14.00;;;8.85;;
68714;SDS011;55692;53.356;10.030;2023-05-07T04:52:02;13.13;;;8.80;;
68714;SDS011;55692;53.356;10.030;2023-05-07T04:54:28;13.10;;;9.18;;
68714;SDS011;55692;53.356;10.030;2023-05-07T04:56:55;13.55;;;8.68;;
68714;SDS011;55692;53.356;10.030;2023-05-07T04:59:21;13.40;;;9.10;;
68714;SDS011;55692;53.356;10.030;2023-05-07T05:01:47;13.10;;;8.77;;
68714;SDS011;55692;53.356;10.030;2023-05-07T05:04:13;13.10;;;9.13;;
68714;SDS011;55692;53.356;10.030;2023-05-07T05:06:39;14.00;;;9.50;;
68714;SDS011;55692;53.356;10.030;2023-05-07T05:09:05;18.05;;;10.55;;
68714;SDS011;55692;53.356;10.030;2023-05-07T05:11:31;14.00;;;9.32;;
68714;SDS011;55692;53.356;10.030;2023-05-07T05:13:58;14.10;;;9.23;;
68714;SDS011;55692;53.356;10.030;2023-05-07T05:16:25;14.25;;;8.77;;
68714;SDS011;55692;53.356;10.030;2023-05-07T05:18:51;14.55;;;9.98;;
68714;SDS011;55692;53.356;10.030;2023-05-07T05:21:19;15.90;;;9.27;;
68714;SDS011;55692;53.356;10.030;2023-05-07T05:23:45;13.18;;;9.02;;
68714;SDS011;55692;53.356;10.030;2023-05-07T05:26:11;16.45;;;9.68;;
68714;SDS011;55692;53.356;10.030;2023-05-07T05:28:37;16.48;;;9.00;;
68714;SDS011;55692;53.356;10.030;2023-05-07T05:31:03;14.13;;;9.40;;
68714;SDS011;55692;53.356;10.030;2023-05-07T05:33:29;15.25;;;9.18;;
68714;SDS011;55692;53.356;10.030;2023-05-07T05:35:55;12.23;;;8.88;;
68714;SDS011;55692;53.356;10.030;2023-05-07T05:38:21;14.02;;;8.45;;
68714;SDS011;55692;53.356;10.030;2023-05-07T05:40:47;14.50;;;8.35;;
68714;SDS011;55692;53.356;10.030;2023-05-07T05:43:13;14.98;;;9.52;;
68714;SDS011;55692;53.356;10.030;2023-05-07T05:45:39;11.77;;;8.38;;
68714;SDS011;55692;53.356;10.030;2023-05-07T05:48:05;12.95;;;8.85;;
68714;SDS011;55692;53.356;10.030;2023-05-07T05:50:33;12.20;;;8.15;;
68714;SDS011;55692;53.356;10.030;2023-05-07T05:53:00;12.38;;;7.85;;
68714;SDS011;55692;53.356;10.030;2023-05-07T05:55:26;14.88;;;9.15;;
68714;SDS011;55692;53.356;10.030;2023-05-07T05:57:52;11.43;;;7.63;;
68714;SDS011;55692;53.356;10.030;2023-05-07T06:00:18;12.40;;;7.72;;
68714;SDS011;55692;53.356;10.030;2023-05-07T06:02:47;11.27;;;7.88;;
68714;SDS011;55692;53.356;10.030;2023-05-07T06:05:13;12.15;;;8.15;;
68714;SDS011;55692;53.356;10.030;2023-05-07T06:07:39;13.40;;;8.10;;
68714;SDS011;55692;53.356;10.030;2023-05-07T06:10:06;11.68;;;7.82;;
68714;SDS011;55692;53.356;10.030;2023-05-07T06:12:32;13.02;;;8.68;;
68714;SDS011;55692;53.356;10.030;2023-05-07T06:14:58;14.18;;;7.85;;
68714;SDS011;55692;53.356;10.030;2023-05-07T06:17:24;11.57;;;8.18;;
68714;SDS011;55692;53.356;10.030;2023-05-07T06:19:50;10.77;;;7.60;;
68714;SDS011;55692;53.356;10.030;2023-05-07T06:22:16;11.77;;;7.80;;
68714;SDS011;55692;53.356;10.030;2023-05-07T06:24:42;14.43;;;8.10;;
68714;SDS011;55692;53.356;10.030;2023-05-07T06:27:08;13.07;;;8.00;;
68714;SDS011;55692;53.356;10.030;2023-05-07T06:29:34;13.15;;;7.90;;
68714;SDS011;55692;53.356;10.030;2023-05-07T06:32:07;12.15;;;8.05;;
68714;SDS011;55692;53.356;10.030;2023-05-07T06:34:33;12.57;;;7.93;;
68714;SDS011;55692;53.356;10.030;2023-05-07T06:36:59;13.55;;;7.53;;
68714;SDS011;55692;53.356;10.030;2023-05-07T06:39:26;14.10;;;8.38;;
68714;SDS011;55692;53.356;10.030;2023-05-07T06:41:52;12.73;;;8.00;;
68714;SDS011;55692;53.356;10.030;2023-05-07T06:44:18;13.38;;;8.15;;
68714;SDS011;55692;53.356;10.030;2023-05-07T06:46:44;12.93;;;7.82;;
68714;SDS011;55692;53.356;10.030;2023-05-07T06:49:11;12.18;;;7.70;;
68714;SDS011;55692;53.356;10.030;2023-05-07T06:51:38;12.40;;;7.78;;
68714;SDS011;55692;53.356;10.030;2023-05-07T06:54:04;10.80;;;7.03;;
68714;SDS011;55692;53.356;10.030;2023-05-07T06:56:30;12.70;;;7.05;;
68714;SDS011;55692;53.356;10.030;2023-05-07T06:58:56;11.40;;;6.95;;
68714;SDS011;55692;53.356;10.030;2023-05-07T07:01:22;11.05;;;7.22;;
68714;SDS011;55692;53.356;10.030;2023-05-07T07:03:48;13.68;;;7.25;;
68714;SDS011;55692;53.356;10.030;2023-05-07T07:06:16;10.82;;;6.80;;
68714;SDS011;55692;53.356;10.030;2023-05-07T07:08:42;10.95;;;7.20;;
68714;SDS011;55692;53.356;10.030;2023-05-07T07:11:08;10.18;;;6.80;;
68714;SDS011;55692;53.356;10.030;2023-05-07T07:13:34;12.07;;;6.93;;
68714;SDS011;55692;53.356;10.030;2023-05-07T07:16:00;10.32;;;7.35;;
68714;SDS011;55692;53.356;10.030;2023-05-07T07:18:26;10.30;;;6.53;;
68714;SDS011;55692;53.356;10.030;2023-05-07T07:20:52;11.48;;;6.82;;
68714;SDS011;55692;53.356;10.030;2023-05-07T07:23:18;11.18;;;6.70;;
68714;SDS011;55692;53.356;10.030;2023-05-07T07:25:44;10.48;;;6.93;;
68714;SDS011;55692;53.356;10.030;2023-05-07T07:28:11;12.20;;;7.40;;
68714;SDS011;55692;53.356;10.030;2023-05-07T07:30:37;13.95;;;6.47;;
68714;SDS011;55692;53.356;10.030;2023-05-07T07:33:03;10.25;;;6.35;;
68714;SDS011;55692;53.356;10.030;2023-05-07T07:35:30;12.85;;;6.57;;
68714;SDS011;55692;53.356;10.030;2023-05-07T07:37:56;15.60;;;6.70;;
68714;SDS011;55692;53.356;10.030;2023-05-07T07:40:22;12.32;;;6.18;;
68714;SDS011;55692;53.356;10.030;2023-05-07T07:42:48;8.30;;;5.72;;
68714;SDS011;55692;53.356;10.030;2023-05-07T07:45:14;10.15;;;6.75;;
68714;SDS011;55692;53.356;10.030;2023-05-07T07:47:40;10.45;;;6.53;;
68714;SDS011;55692;53.356;10.030;2023-05-07T07:50:06;12.50;;;5.80;;
68714;SDS011;55692;53.356;10.030;2023-05-07T07:52:33;9.38;;;5.85;;
68714;SDS011;55692;53.356;10.030;2023-05-07T07:54:59;7.60;;;5.25;;
68714;SDS011;55692;53.356;10.030;2023-05-07T07:57:25;9.10;;;5.45;;
68714;SDS011;55692;53.356;10.030;2023-05-07T07:59:51;7.97;;;5.70;;
68714;SDS011;55692;53.356;10.030;2023-05-07T08:02:17;9.73;;;6.15;;
68714;SDS011;55692;53.356;10.030;2023-05-07T08:04:43;10.50;;;6.28;;
68714;SDS011;55692;53.356;10.030;2023-05-07T08:07:09;9.43;;;6.00;;
68714;SDS011;55692;53.356;10.030;2023-05-07T08:09:36;8.52;;;5.43;;
68714;SDS011;55692;53.356;10.030;2023-05-07T08:12:03;9.05;;;6.07;;
68714;SDS011;55692;53.356;10.030;2023-05-07T08:14:29;8.68;;;5.47;;
68714;SDS011;55692;53.356;10.030;2023-05-07T08:16:55;12.52;;;5.88;;
68714;SDS011;55692;53.356;10.030;2023-05-07T08:19:21;9.55;;;6.10;;
68714;SDS011;55692;53.356;10.030;2023-05-07T08:21:47;10.65;;;6.22;;
68714;SDS011;55692;53.356;10.030;2023-05-07T08:24:14;8.20;;;5.72;;
68714;SDS011;55692;53.356;10.030;2023-05-07T08:26:40;8.77;;;5.63;;
68714;SDS011;55692;53.356;10.030;2023-05-07T08:29:06;9.30;;;6.05;;
68714;SDS011;55692;53.356;10.030;2023-05-07T08:31:32;8.10;;;5.80;;
68714;SDS011;55692;53.356;10.030;2023-05-07T08:33:59;8.60;;;5.60;;
68714;SDS011;55692;53.356;10.030;2023-05-07T08:36:25;7.28;;;5.07;;
68714;SDS011;55692;53.356;10.030;2023-05-07T08:38:51;8.75;;;5.30;;
68714;SDS011;55692;53.356;10.030;2023-05-07T08:41:17;6.53;;;5.20;;
68714;SDS011;55692;53.356;10.030;2023-05-07T08:43:49;9.55;;;5.47;;
68714;SDS011;55692;53.356;10.030;2023-05-07T08:46:16;8.40;;;4.93;;
68714;SDS011;55692;53.356;10.030;2023-05-07T08:48:43;7.25;;;5.15;;
68714;SDS011;55692;53.356;10.030;2023-05-07T08:51:13;7.63;;;5.28;;
68714;SDS011;55692;53.356;10.030;2023-05-07T08:53:40;7.53;;;5.68;;
68714;SDS011;55692;53.356;10.030;2023-05-07T08:56:06;7.15;;;5.13;;
68714;SDS011;55692;53.356;10.030;2023-05-07T08:58:33;6.88;;;4.82;;
68714;SDS011;55692;53.356;10.030;2023-05-07T09:01:01;6.57;;;4.90;;
68714;SDS011;55692;53.356;10.030;2023-05-07T09:03:30;6.75;;;5.15;;
68714;SDS011;55692;53.356;10.030;2023-05-07T09:05:56;6.82;;;4.13;;
68714;SDS011;55692;53.356;10.030;2023-05-07T09:08:24;9.40;;;5.07;;
68714;SDS011;55692;53.356;10.030;2023-05-07T09:10:51;9.77;;;5.10;;
68714;SDS011;55692;53.356;10.030;2023-05-07T09:13:17;10.93;;;5.65;;
68714;SDS011;55692;53.356;10.030;2023-05-07T09:15:44;7.18;;;5.03;;
68714;SDS011;55692;53.356;10.030;2023-05-07T09:18:10;7.93;;;5.13;;
68714;SDS011;55692;53.356;10.030;2023-05-07T09:20:36;7.45;;;5.28;;
68714;SDS011;55692;53.356;10.030;2023-05-07T09:23:02;7.80;;;5.22;;
68714;SDS011;55692;53.356;10.030;2023-05-07T09:25:29;8.48;;;5.38;;
68714;SDS011;55692;53.356;10.030;2023-05-07T09:27:55;8.57;;;5.28;;
68714;SDS011;55692;53.356;10.030;2023-05-07T09:30:26;6.97;;;5.00;;
68714;SDS011;55692;53.356;10.030;2023-05-07T09:32:53;7.53;;;5.25;;
68714;SDS011;55692;53.356;10.030;2023-05-07T09:35:22;10.30;;;5.72;;
68714;SDS011;55692;53.356;10.030;2023-05-07T09:37:52;8.40;;;5.55;;
68714;SDS011;55692;53.356;10.030;2023-05-07T09:40:21;10.35;;;6.18;;
68714;SDS011;55692;53.356;10.030;2023-05-07T09:42:48;6.80;;;5.25;;
68714;SDS011;55692;53.356;10.030;2023-05-07T09:45:14;7.85;;;5.00;;
68714;SDS011;55692;53.356;10.030;2023-05-07T09:47:41;7.15;;;5.50;;
68714;SDS011;55692;53.356;10.030;2023-05-07T09:50:12;6.72;;;5.28;;
68714;SDS011;55692;53.356;10.030;2023-05-07T09:52:38;8.95;;;6.10;;
68714;SDS011;55692;53.356;10.030;2023-05-07T09:55:05;8.77;;;5.78;;
68714;SDS011;55692;53.356;10.030;2023-05-07T09:57:32;6.78;;;5.10;;
68714;SDS011;55692;53.356;10.030;2023-05-07T09:59:58;7.55;;;5.85;;
68714;SDS011;55692;53.356;10.030;2023-05-07T10:02:25;11.27;;;5.57;;
68714;SDS011;55692;53.356;10.030;2023-05-07T10:04:54;9.25;;;5.40;;
68714;SDS011;55692;53.356;10.030;2023-05-07T10:07:21;7.50;;;5.85;;
68714;SDS011;55692;53.356;10.030;2023-05-07T10:09:47;8.52;;;5.85;;
68714;SDS011;55692;53.356;10.030;2023-05-07T10:12:13;10.38;;;5.78;;
68714;SDS011;55692;53.356;10.030;2023-05-07T10:14:40;9.57;;;6.03;;
68714;SDS011;55692;53.356;10.030;2023-05-07T10:17:06;9.98;;;7.18;;
68714;SDS011;55692;53.356;10.030;2023-05-07T10:19:32;7.78;;;5.72;;
68714;SDS011;55692;53.356;10.030;2023-05-07T10:22:00;8.48;;;6.03;;
68714;SDS011;55692;53.356;10.030;2023-05-07T10:24:34;8.10;;;5.47;;
68714;SDS011;55692;53.356;10.030;2023-05-07T10:27:02;8.15;;;6.22;;
68714;SDS011;55692;53.356;10.030;2023-05-07T10:29:33;9.35;;;6.13;;
68714;SDS011;55692;53.356;10.030;2023-05-07T10:32:08;8.23;;;5.47;;
68714;SDS011;55692;53.356;10.030;2023-05-07T10:34:40;8.25;;;5.55;;
68714;SDS011;55692;53.356;10.030;2023-05-07T10:37:07;10.95;;;6.22;;
68714;SDS011;55692;53.356;10.030;2023-05-07T10:39:34;9.00;;;6.03;;
68714;SDS011;55692;53.356;10.030;2023-05-07T10:42:13;9.70;;;6.40;;
68714;SDS011;55692;53.356;10.030;2023-05-07T10:44:39;9.25;;;5.95;;
68714;SDS011;55692;53.356;10.030;2023-05-07T10:47:12;8.95;;;6.13;;
68714;SDS011;55692;53.356;10.030;2023-05-07T10:54:39;7.63;;;5.93;;
68714;SDS011;55692;53.356;10.030;2023-05-07T10:59:50;8.23;;;6.15;;
68714;SDS011;55692;53.356;10.030;2023-05-07T11:02:17;6.50;;;5.00;;
68714;SDS011;55692;53.356;10.030;2023-05-07T11:04:42;7.90;;;5.85;;
68714;SDS011;55692;53.356;10.030;2023-05-07T11:15:01;6.65;;;5.32;;
68714;SDS011;55692;53.356;10.030;2023-05-07T11:17:28;7.40;;;5.63;;
68714;SDS011;55692;53.356;10.030;2023-05-07T11:19:57;7.40;;;5.28;;
68714;SDS011;55692;53.356;10.030;2023-05-07T11:25:04;7.47;;;5.30;;
68714;SDS011;55692;53.356;10.030;2023-05-07T11:27:30;6.38;;;5.13;;
68714;SDS011;55692;53.356;10.030;2023-05-07T11:29:57;7.85;;;4.95;;
68714;SDS011;55692;53.356;10.030;2023-05-07T11:32:23;7.13;;;4.65;;
68714;SDS011;55692;53.356;10.030;2023-05-07T11:34:52;6.97;;;4.88;;
68714;SDS011;55692;53.356;10.030;2023-05-07T11:37:19;6.57;;;4.65;;
68714;SDS011;55692;53.356;10.030;2023-05-07T11:39:45;8.02;;;4.70;;
68714;SDS011;55692;53.356;10.030;2023-05-07T11:45:12;6.70;;;4.88;;
68714;SDS011;55692;53.356;10.030;2023-05-07T11:47:49;5.78;;;4.35;;
68714;SDS011;55692;53.356;10.030;2023-05-07T11:50:15;6.57;;;4.50;;
68714;SDS011;55692;53.356;10.030;2023-05-07T11:52:49;5.40;;;4.30;;
68714;SDS011;55692;53.356;10.030;2023-05-07T11:55:17;6.60;;;5.07;;
68714;SDS011;55692;53.356;10.030;2023-05-07T11:57:44;6.38;;;4.60;;
68714;SDS011;55692;53.356;10.030;2023-05-07T12:00:10;7.22;;;4.22;;
68714;SDS011;55692;53.356;10.030;2023-05-07T12:02:36;5.20;;;4.60;;
68714;SDS011;55692;53.356;10.030;2023-05-07T12:05:03;5.57;;;3.95;;
68714;SDS011;55692;53.356;10.030;2023-05-07T12:07:29;6.57;;;4.05;;
68714;SDS011;55692;53.356;10.030;2023-05-07T12:09:56;7.07;;;4.03;;
68714;SDS011;55692;53.356;10.030;2023-05-07T12:12:22;4.78;;;3.70;;
68714;SDS011;55692;53.356;10.030;2023-05-07T12:14:48;8.52;;;4.22;;
68714;SDS011;55692;53.356;10.030;2023-05-07T12:17:15;7.15;;;4.15;;
68714;SDS011;55692;53.356;10.030;2023-05-07T12:19:42;5.22;;;3.83;;
68714;SDS011;55692;53.356;10.030;2023-05-07T12:22:09;5.18;;;4.13;;
68714;SDS011;55692;53.356;10.030;2023-05-07T12:24:48;5.70;;;3.70;;
68714;SDS011;55692;53.356;10.030;2023-05-07T12:27:14;5.13;;;3.50;;
68714;SDS011;55692;53.356;10.030;2023-05-07T12:29:47;5.43;;;3.45;;
68714;SDS011;55692;53.356;10.030;2023-05-07T12:32:14;7.95;;;3.90;;
68714;SDS011;55692;53.356;10.030;2023-05-07T12:34:40;4.60;;;3.40;;
68714;SDS011;55692;53.356;10.030;2023-05-07T12:37:06;6.18;;;3.72;;
68714;SDS011;55692;53.356;10.030;2023-05-07T12:39:32;3.78;;;3.33;;
68714;SDS011;55692;53.356;10.030;2023-05-07T12:41:58;4.65;;;3.58;;
68714;SDS011;55692;53.356;10.030;2023-05-07T12:44:25;5.63;;;3.15;;
68714;SDS011;55692;53.356;10.030;2023-05-07T12:46:55;4.45;;;3.40;;
68714;SDS011;55692;53.356;10.030;2023-05-07T12:49:21;5.18;;;3.65;;
68714;SDS011;55692;53.356;10.030;2023-05-07T12:51:47;4.03;;;3.20;;
68714;SDS011;55692;53.356;10.030;2023-05-07T12:54:13;5.18;;;3.88;;
68714;SDS011;55692;53.356;10.030;2023-05-07T12:56:40;5.63;;;3.40;;
68714;SDS011;55692;53.356;10.030;2023-05-07T12:59:06;5.32;;;3.25;;
68714;SDS011;55692;53.356;10.030;2023-05-07T13:01:33;4.55;;;3.55;;
68714;SDS011;55692;53.356;10.030;2023-05-07T13:04:00;5.10;;;3.05;;
68714;SDS011;55692;53.356;10.030;2023-05-07T13:06:26;4.38;;;3.08;;
68714;SDS011;55692;53.356;10.030;2023-05-07T13:08:53;4.15;;;2.95;;
68714;SDS011;55692;53.356;10.030;2023-05-07T13:11:18;4.18;;;3.22;;
68714;SDS011;55692;53.356;10.030;2023-05-07T13:13:45;4.80;;;3.17;;
68714;SDS011;55692;53.356;10.030;2023-05-07T13:16:11;3.90;;;2.95;;
68714;SDS011;55692;53.356;10.030;2023-05-07T13:18:38;4.15;;;3.25;;
68714;SDS011;55692;53.356;10.030;2023-05-07T13:21:04;6.25;;;3.30;;
68714;SDS011;55692;53.356;10.030;2023-05-07T13:23:31;5.07;;;3.63;;
68714;SDS011;55692;53.356;10.030;2023-05-07T13:25:57;6.22;;;2.95;;
68714;SDS011;55692;53.356;10.030;2023-05-07T13:28:26;4.50;;;3.38;;
68714;SDS011;55692;53.356;10.030;2023-05-07T13:30:52;4.63;;;3.05;;
68714;SDS011;55692;53.356;10.030;2023-05-07T13:33:19;7.28;;;3.38;;
68714;SDS011;55692;53.356;10.030;2023-05-07T13:35:45;4.47;;;3.00;;
68714;SDS011;55692;53.356;10.030;2023-05-07T13:38:11;6.60;;;3.60;;
68714;SDS011;55692;53.356;10.030;2023-05-07T13:40:37;4.25;;;2.85;;
68714;SDS011;55692;53.356;10.030;2023-05-07T13:43:05;4.07;;;2.88;;
68714;SDS011;55692;53.356;10.030;2023-05-07T13:45:31;2.90;;;2.50;;
68714;SDS011;55692;53.356;10.030;2023-05-07T13:47:57;3.45;;;2.47;;
68714;SDS011;55692;53.356;10.030;2023-05-07T13:50:23;3.95;;;2.50;;
68714;SDS011;55692;53.356;10.030;2023-05-07T13:52:49;9.77;;;2.90;;
68714;SDS011;55692;53.356;10.030;2023-05-07T13:55:18;4.53;;;3.00;;
68714;SDS011;55692;53.356;10.030;2023-05-07T13:57:44;5.50;;;3.47;;
68714;SDS011;55692;53.356;10.030;2023-05-07T14:00:10;3.42;;;2.55;;
68714;SDS011;55692;53.356;10.030;2023-05-07T14:02:37;4.78;;;2.30;;
68714;SDS011;55692;53.356;10.030;2023-05-07T14:05:03;2.90;;;2.13;;
68714;SDS011;55692;53.356;10.030;2023-05-07T14:07:29;2.22;;;1.95;;
68714;SDS011;55692;53.356;10.030;2023-05-07T14:09:56;4.90;;;2.53;;
68714;SDS011;55692;53.356;10.030;2023-05-07T14:12:22;3.10;;;2.10;;
68714;SDS011;55692;53.356;10.030;2023-05-07T14:14:48;4.22;;;2.72;;
68714;SDS011;55692;53.356;10.030;2023-05-07T14:17:15;2.55;;;2.00;;
68714;SDS011;55692;53.356;10.030;2023-05-07T14:19:42;2.40;;;2.00;;
68714;SDS011;55692;53.356;10.030;2023-05-07T14:22:08;2.13;;;1.80;;
68714;SDS011;55692;53.356;10.030;2023-05-07T14:24:34;2.03;;;1.83;;
68714;SDS011;55692;53.356;10.030;2023-05-07T14:27:00;3.60;;;2.25;;
68714;SDS011;55692;53.356;10.030;2023-05-07T14:29:26;4.03;;;2.05;;
68714;SDS011;55692;53.356;10.030;2023-05-07T14:31:52;3.25;;;2.00;;
68714;SDS011;55692;53.356;10.030;2023-05-07T14:34:18;2.38;;;1.80;;
68714;SDS011;55692;53.356;10.030;2023-05-07T14:36:44;2.58;;;2.00;;
68714;SDS011;55692;53.356;10.030;2023-05-07T14:39:10;2.55;;;1.83;;
68714;SDS011;55692;53.356;10.030;2023-05-07T14:41:36;2.30;;;1.92;;
68714;SDS011;55692;53.356;10.030;2023-05-07T14:44:02;3.65;;;2.20;;